sensor_id;sensor_type;location;lat;lon;timestamp;P1;durP1;ratioP1;P2;durP2;ratioP2
12445;SDS011;6287;50.984;7.022;2022-11-25T00:01:12;6.00;;;1.60;;
12445;SDS011;6287;50.984;7.022;2022-11-25T00:03:42;6.13;;;1.70;;
12445;SDS011;6287;50.984;7.022;2022-11-25T00:06:09;5.10;;;1.40;;
12445;SDS011;6287;50.984;7.022;2022-11-25T00:08:39;8.33;;;1.53;;
12445;SDS011;6287;50.984;7.022;2022-11-25T00:11:05;6.13;;;1.90;;
12445;SDS011;6287;50.984;7.022;2022-11-25T00:13:34;6.40;;;1.63;;
12445;SDS011;6287;50.984;7.022;2022-11-25T00:16:01;6.47;;;1.57;;
12445;SDS011;6287;50.984;7.022;2022-11-25T00:18:35;4.43;;;1.40;;
12445;SDS011;6287;50.984;7.022;2022-11-25T00:21:09;6.87;;;1.60;;
12445;SDS011;6287;50.984;7.022;2022-11-25T00:23:38;4.00;;;1.63;;
12445;SDS011;6287;50.984;7.022;2022-11-25T00:26:08;4.27;;;1.60;;
12445;SDS011;6287;50.984;7.022;2022-11-25T00:28:34;4.87;;;1.67;;
12445;SDS011;6287;50.984;7.022;2022-11-25T00:31:11;4.83;;;1.40;;
12445;SDS011;6287;50.984;7.022;2022-11-25T00:33:38;4.40;;;1.57;;
12445;SDS011;6287;50.984;7.022;2022-11-25T00:36:11;3.40;;;1.23;;
12445;SDS011;6287;50.984;7.022;2022-11-25T00:38:38;4.43;;;1.33;;
12445;SDS011;6287;50.984;7.022;2022-11-25T00:41:06;7.83;;;2.23;;
12445;SDS011;6287;50.984;7.022;2022-11-25T00:43:50;2.50;;;1.07;;
12445;SDS011;6287;50.984;7.022;2022-11-25T00:46:37;7.70;;;1.50;;
12445;SDS011;6287;50.984;7.022;2022-11-25T00:49:05;5.13;;;1.90;;
12445;SDS011;6287;50.984;7.022;2022-11-25T00:51:31;7.50;;;1.73;;
12445;SDS011;6287;50.984;7.022;2022-11-25T00:53:56;4.63;;;1.50;;
12445;SDS011;6287;50.984;7.022;2022-11-25T00:56:22;6.80;;;1.67;;
12445;SDS011;6287;50.984;7.022;2022-11-25T00:58:48;7.40;;;1.80;;
12445;SDS011;6287;50.984;7.022;2022-11-25T01:01:17;4.00;;;1.70;;
12445;SDS011;6287;50.984;7.022;2022-11-25T01:03:42;2.47;;;1.43;;
12445;SDS011;6287;50.984;7.022;2022-11-25T01:06:14;4.43;;;1.63;;
12445;SDS011;6287;50.984;7.022;2022-11-25T01:08:40;4.53;;;1.60;;
12445;SDS011;6287;50.984;7.022;2022-11-25T01:11:07;4.93;;;1.77;;
12445;SDS011;6287;50.984;7.022;2022-11-25T01:13:35;4.07;;;1.87;;
12445;SDS011;6287;50.984;7.022;2022-11-25T01:16:03;2.07;;;1.27;;
12445;SDS011;6287;50.984;7.022;2022-11-25T01:18:33;4.00;;;1.60;;
12445;SDS011;6287;50.984;7.022;2022-11-25T01:21:11;5.50;;;1.50;;
12445;SDS011;6287;50.984;7.022;2022-11-25T01:23:39;5.67;;;1.90;;
12445;SDS011;6287;50.984;7.022;2022-11-25T01:26:09;8.43;;;2.00;;
12445;SDS011;6287;50.984;7.022;2022-11-25T01:28:36;2.73;;;1.70;;
12445;SDS011;6287;50.984;7.022;2022-11-25T01:31:13;6.13;;;1.90;;
12445;SDS011;6287;50.984;7.022;2022-11-25T01:33:40;2.63;;;1.47;;
12445;SDS011;6287;50.984;7.022;2022-11-25T01:36:10;3.00;;;1.30;;
12445;SDS011;6287;50.984;7.022;2022-11-25T01:38:39;4.90;;;1.60;;
12445;SDS011;6287;50.984;7.022;2022-11-25T01:41:09;5.23;;;1.63;;
12445;SDS011;6287;50.984;7.022;2022-11-25T01:43:41;5.33;;;1.70;;
12445;SDS011;6287;50.984;7.022;2022-11-25T01:46:13;5.33;;;1.90;;
12445;SDS011;6287;50.984;7.022;2022-11-25T01:51:17;5.10;;;1.77;;
12445;SDS011;6287;50.984;7.022;2022-11-25T01:53:50;3.13;;;1.83;;
12445;SDS011;6287;50.984;7.022;2022-11-25T01:56:20;5.47;;;2.23;;
12445;SDS011;6287;50.984;7.022;2022-11-25T01:58:46;6.60;;;2.13;;
12445;SDS011;6287;50.984;7.022;2022-11-25T02:01:13;7.17;;;1.97;;
12445;SDS011;6287;50.984;7.022;2022-11-25T02:03:46;6.77;;;1.90;;
12445;SDS011;6287;50.984;7.022;2022-11-25T02:08:58;5.00;;;1.80;;
12445;SDS011;6287;50.984;7.022;2022-11-25T02:11:30;2.03;;;1.30;;
12445;SDS011;6287;50.984;7.022;2022-11-25T02:14:00;5.27;;;1.87;;
12445;SDS011;6287;50.984;7.022;2022-11-25T02:16:27;8.07;;;1.70;;
12445;SDS011;6287;50.984;7.022;2022-11-25T02:18:52;6.53;;;1.97;;
12445;SDS011;6287;50.984;7.022;2022-11-25T02:21:41;6.70;;;1.87;;
12445;SDS011;6287;50.984;7.022;2022-11-25T02:24:26;3.60;;;1.80;;
12445;SDS011;6287;50.984;7.022;2022-11-25T02:26:58;2.87;;;2.03;;
12445;SDS011;6287;50.984;7.022;2022-11-25T02:29:24;3.63;;;1.73;;
12445;SDS011;6287;50.984;7.022;2022-11-25T02:31:55;4.97;;;2.03;;
12445;SDS011;6287;50.984;7.022;2022-11-25T02:34:20;4.57;;;1.73;;
12445;SDS011;6287;50.984;7.022;2022-11-25T02:36:46;2.83;;;1.73;;
12445;SDS011;6287;50.984;7.022;2022-11-25T02:39:13;4.23;;;1.70;;
12445;SDS011;6287;50.984;7.022;2022-11-25T02:41:48;4.10;;;1.87;;
12445;SDS011;6287;50.984;7.022;2022-11-25T02:44:20;7.43;;;1.50;;
12445;SDS011;6287;50.984;7.022;2022-11-25T02:46:51;6.17;;;1.80;;
12445;SDS011;6287;50.984;7.022;2022-11-25T02:49:18;5.50;;;1.80;;
12445;SDS011;6287;50.984;7.022;2022-11-25T02:51:49;5.67;;;1.43;;
12445;SDS011;6287;50.984;7.022;2022-11-25T02:54:15;6.20;;;1.60;;
12445;SDS011;6287;50.984;7.022;2022-11-25T02:56:41;4.87;;;1.43;;
12445;SDS011;6287;50.984;7.022;2022-11-25T02:59:09;2.03;;;1.40;;
12445;SDS011;6287;50.984;7.022;2022-11-25T03:01:35;2.80;;;1.60;;
12445;SDS011;6287;50.984;7.022;2022-11-25T03:04:03;3.17;;;1.70;;
12445;SDS011;6287;50.984;7.022;2022-11-25T03:06:34;4.83;;;1.50;;
12445;SDS011;6287;50.984;7.022;2022-11-25T03:08:59;2.87;;;1.27;;
12445;SDS011;6287;50.984;7.022;2022-11-25T03:11:28;7.20;;;1.77;;
12445;SDS011;6287;50.984;7.022;2022-11-25T03:14:15;4.20;;;1.53;;
12445;SDS011;6287;50.984;7.022;2022-11-25T03:16:41;2.50;;;1.53;;
12445;SDS011;6287;50.984;7.022;2022-11-25T03:19:06;4.30;;;1.60;;
12445;SDS011;6287;50.984;7.022;2022-11-25T03:21:32;3.13;;;1.67;;
12445;SDS011;6287;50.984;7.022;2022-11-25T03:24:00;3.67;;;1.90;;
12445;SDS011;6287;50.984;7.022;2022-11-25T03:26:25;3.33;;;1.77;;
12445;SDS011;6287;50.984;7.022;2022-11-25T03:28:53;5.07;;;1.40;;
12445;SDS011;6287;50.984;7.022;2022-11-25T03:31:19;3.97;;;1.80;;
12445;SDS011;6287;50.984;7.022;2022-11-25T03:33:46;5.77;;;1.40;;
12445;SDS011;6287;50.984;7.022;2022-11-25T03:36:12;4.87;;;1.60;;
12445;SDS011;6287;50.984;7.022;2022-11-25T03:38:42;4.63;;;1.43;;
12445;SDS011;6287;50.984;7.022;2022-11-25T03:41:10;3.37;;;1.60;;
12445;SDS011;6287;50.984;7.022;2022-11-25T03:43:40;1.43;;;1.33;;
12445;SDS011;6287;50.984;7.022;2022-11-25T03:46:08;2.77;;;1.40;;
12445;SDS011;6287;50.984;7.022;2022-11-25T03:48:33;4.67;;;1.50;;
12445;SDS011;6287;50.984;7.022;2022-11-25T03:50:59;3.83;;;1.47;;
12445;SDS011;6287;50.984;7.022;2022-11-25T03:53:27;7.60;;;1.60;;
12445;SDS011;6287;50.984;7.022;2022-11-25T03:55:52;5.87;;;1.83;;
12445;SDS011;6287;50.984;7.022;2022-11-25T03:58:23;2.93;;;1.67;;
12445;SDS011;6287;50.984;7.022;2022-11-25T04:00:51;4.17;;;1.63;;
12445;SDS011;6287;50.984;7.022;2022-11-25T04:03:16;9.83;;;2.30;;
12445;SDS011;6287;50.984;7.022;2022-11-25T04:05:44;6.83;;;1.60;;
12445;SDS011;6287;50.984;7.022;2022-11-25T04:08:14;3.77;;;1.67;;
12445;SDS011;6287;50.984;7.022;2022-11-25T04:10:42;4.03;;;1.77;;
12445;SDS011;6287;50.984;7.022;2022-11-25T04:13:10;5.03;;;1.40;;
12445;SDS011;6287;50.984;7.022;2022-11-25T04:15:46;6.70;;;1.83;;
12445;SDS011;6287;50.984;7.022;2022-11-25T04:18:14;3.73;;;1.80;;
12445;SDS011;6287;50.984;7.022;2022-11-25T04:20:43;2.93;;;1.60;;
12445;SDS011;6287;50.984;7.022;2022-11-25T04:23:09;4.90;;;1.93;;
12445;SDS011;6287;50.984;7.022;2022-11-25T04:25:36;7.33;;;1.70;;
12445;SDS011;6287;50.984;7.022;2022-11-25T04:28:04;4.93;;;1.80;;
12445;SDS011;6287;50.984;7.022;2022-11-25T04:30:30;4.33;;;1.87;;
12445;SDS011;6287;50.984;7.022;2022-11-25T04:32:57;3.50;;;1.43;;
12445;SDS011;6287;50.984;7.022;2022-11-25T04:35:22;5.07;;;1.57;;
12445;SDS011;6287;50.984;7.022;2022-11-25T04:37:50;7.70;;;2.50;;
12445;SDS011;6287;50.984;7.022;2022-11-25T04:40:16;3.27;;;1.63;;
12445;SDS011;6287;50.984;7.022;2022-11-25T04:42:44;4.53;;;1.63;;
12445;SDS011;6287;50.984;7.022;2022-11-25T04:45:14;2.60;;;1.50;;
12445;SDS011;6287;50.984;7.022;2022-11-25T04:47:40;6.23;;;2.00;;
12445;SDS011;6287;50.984;7.022;2022-11-25T04:50:11;5.60;;;1.50;;
12445;SDS011;6287;50.984;7.022;2022-11-25T04:52:42;3.40;;;1.70;;
12445;SDS011;6287;50.984;7.022;2022-11-25T04:55:10;3.83;;;2.00;;
12445;SDS011;6287;50.984;7.022;2022-11-25T04:57:36;5.50;;;2.17;;
12445;SDS011;6287;50.984;7.022;2022-11-25T05:00:07;3.80;;;1.83;;
12445;SDS011;6287;50.984;7.022;2022-11-25T05:02:33;3.97;;;1.50;;
12445;SDS011;6287;50.984;7.022;2022-11-25T05:05:01;2.13;;;1.77;;
12445;SDS011;6287;50.984;7.022;2022-11-25T05:07:27;5.33;;;1.93;;
12445;SDS011;6287;50.984;7.022;2022-11-25T05:09:55;7.07;;;1.87;;
12445;SDS011;6287;50.984;7.022;2022-11-25T05:12:25;5.83;;;2.00;;
12445;SDS011;6287;50.984;7.022;2022-11-25T05:14:52;6.47;;;1.90;;
12445;SDS011;6287;50.984;7.022;2022-11-25T05:17:23;1.90;;;1.53;;
12445;SDS011;6287;50.984;7.022;2022-11-25T05:19:52;3.50;;;1.80;;
12445;SDS011;6287;50.984;7.022;2022-11-25T05:22:19;5.00;;;1.77;;
12445;SDS011;6287;50.984;7.022;2022-11-25T05:24:48;2.20;;;1.57;;
12445;SDS011;6287;50.984;7.022;2022-11-25T05:27:16;5.50;;;1.63;;
12445;SDS011;6287;50.984;7.022;2022-11-25T05:29:45;6.13;;;2.13;;
12445;SDS011;6287;50.984;7.022;2022-11-25T05:32:13;4.47;;;1.83;;
12445;SDS011;6287;50.984;7.022;2022-11-25T05:34:42;3.53;;;2.00;;
12445;SDS011;6287;50.984;7.022;2022-11-25T05:37:11;5.37;;;1.67;;
12445;SDS011;6287;50.984;7.022;2022-11-25T05:39:40;5.90;;;1.63;;
12445;SDS011;6287;50.984;7.022;2022-11-25T05:42:05;4.17;;;1.60;;
12445;SDS011;6287;50.984;7.022;2022-11-25T05:46:59;4.27;;;2.10;;
12445;SDS011;6287;50.984;7.022;2022-11-25T05:49:24;5.10;;;1.87;;
12445;SDS011;6287;50.984;7.022;2022-11-25T05:51:50;5.80;;;1.80;;
12445;SDS011;6287;50.984;7.022;2022-11-25T05:54:18;5.20;;;1.90;;
12445;SDS011;6287;50.984;7.022;2022-11-25T05:56:43;3.87;;;1.80;;
12445;SDS011;6287;50.984;7.022;2022-11-25T05:59:09;2.73;;;1.77;;
12445;SDS011;6287;50.984;7.022;2022-11-25T06:01:34;3.10;;;1.60;;
12445;SDS011;6287;50.984;7.022;2022-11-25T06:04:03;4.83;;;1.67;;
12445;SDS011;6287;50.984;7.022;2022-11-25T06:06:31;4.43;;;1.70;;
12445;SDS011;6287;50.984;7.022;2022-11-25T06:08:57;5.03;;;1.87;;
12445;SDS011;6287;50.984;7.022;2022-11-25T06:11:22;4.43;;;2.07;;
12445;SDS011;6287;50.984;7.022;2022-11-25T06:13:50;6.13;;;1.77;;
12445;SDS011;6287;50.984;7.022;2022-11-25T06:16:20;6.90;;;2.03;;
12445;SDS011;6287;50.984;7.022;2022-11-25T06:18:46;9.33;;;2.03;;
12445;SDS011;6287;50.984;7.022;2022-11-25T06:21:12;4.63;;;2.20;;
12445;SDS011;6287;50.984;7.022;2022-11-25T06:23:43;5.17;;;2.00;;
12445;SDS011;6287;50.984;7.022;2022-11-25T06:26:14;4.33;;;1.83;;
12445;SDS011;6287;50.984;7.022;2022-11-25T06:28:40;3.90;;;1.73;;
12445;SDS011;6287;50.984;7.022;2022-11-25T06:31:16;3.63;;;2.00;;
12445;SDS011;6287;50.984;7.022;2022-11-25T06:33:47;5.80;;;1.90;;
12445;SDS011;6287;50.984;7.022;2022-11-25T06:36:17;6.20;;;1.97;;
12445;SDS011;6287;50.984;7.022;2022-11-25T06:38:49;4.87;;;2.00;;
12445;SDS011;6287;50.984;7.022;2022-11-25T06:41:16;6.17;;;1.90;;
12445;SDS011;6287;50.984;7.022;2022-11-25T06:43:50;4.53;;;1.90;;
12445;SDS011;6287;50.984;7.022;2022-11-25T06:46:18;6.63;;;2.27;;
12445;SDS011;6287;50.984;7.022;2022-11-25T06:48:47;4.87;;;2.10;;
12445;SDS011;6287;50.984;7.022;2022-11-25T06:51:13;6.37;;;2.10;;
12445;SDS011;6287;50.984;7.022;2022-11-25T06:53:40;6.77;;;2.00;;
12445;SDS011;6287;50.984;7.022;2022-11-25T06:56:07;4.93;;;2.50;;
12445;SDS011;6287;50.984;7.022;2022-11-25T06:58:38;6.40;;;2.37;;
12445;SDS011;6287;50.984;7.022;2022-11-25T07:01:15;4.20;;;1.83;;
12445;SDS011;6287;50.984;7.022;2022-11-25T07:03:52;3.80;;;2.00;;
12445;SDS011;6287;50.984;7.022;2022-11-25T07:06:22;7.07;;;2.53;;
12445;SDS011;6287;50.984;7.022;2022-11-25T07:08:48;4.13;;;2.83;;
12445;SDS011;6287;50.984;7.022;2022-11-25T07:13:50;10.40;;;2.70;;
12445;SDS011;6287;50.984;7.022;2022-11-25T07:16:17;5.50;;;2.60;;
12445;SDS011;6287;50.984;7.022;2022-11-25T07:18:47;6.50;;;2.50;;
12445;SDS011;6287;50.984;7.022;2022-11-25T07:21:14;9.23;;;2.50;;
12445;SDS011;6287;50.984;7.022;2022-11-25T07:23:44;6.90;;;2.40;;
12445;SDS011;6287;50.984;7.022;2022-11-25T07:26:14;6.97;;;2.53;;
12445;SDS011;6287;50.984;7.022;2022-11-25T07:28:42;6.07;;;2.37;;
12445;SDS011;6287;50.984;7.022;2022-11-25T07:33:43;5.93;;;2.50;;
12445;SDS011;6287;50.984;7.022;2022-11-25T07:36:10;5.63;;;2.20;;
12445;SDS011;6287;50.984;7.022;2022-11-25T07:38:40;3.60;;;2.30;;
12445;SDS011;6287;50.984;7.022;2022-11-25T07:41:07;5.20;;;2.73;;
12445;SDS011;6287;50.984;7.022;2022-11-25T07:43:37;6.00;;;1.97;;
12445;SDS011;6287;50.984;7.022;2022-11-25T07:46:16;6.13;;;2.73;;
12445;SDS011;6287;50.984;7.022;2022-11-25T07:48:47;3.50;;;2.27;;
12445;SDS011;6287;50.984;7.022;2022-11-25T07:51:20;4.90;;;2.57;;
12445;SDS011;6287;50.984;7.022;2022-11-25T07:53:48;5.27;;;1.90;;
12445;SDS011;6287;50.984;7.022;2022-11-25T07:56:15;6.37;;;3.07;;
12445;SDS011;6287;50.984;7.022;2022-11-25T07:58:42;5.17;;;2.40;;
12445;SDS011;6287;50.984;7.022;2022-11-25T08:01:11;3.37;;;2.47;;
12445;SDS011;6287;50.984;7.022;2022-11-25T08:03:38;3.83;;;2.30;;
12445;SDS011;6287;50.984;7.022;2022-11-25T08:06:15;3.87;;;2.40;;
12445;SDS011;6287;50.984;7.022;2022-11-25T08:08:44;9.57;;;3.27;;
12445;SDS011;6287;50.984;7.022;2022-11-25T08:11:12;5.37;;;2.80;;
12445;SDS011;6287;50.984;7.022;2022-11-25T08:13:39;7.13;;;3.30;;
12445;SDS011;6287;50.984;7.022;2022-11-25T08:16:09;4.03;;;2.63;;
12445;SDS011;6287;50.984;7.022;2022-11-25T08:18:37;4.47;;;2.50;;
12445;SDS011;6287;50.984;7.022;2022-11-25T08:21:03;4.20;;;3.07;;
12445;SDS011;6287;50.984;7.022;2022-11-25T08:23:30;4.10;;;2.87;;
12445;SDS011;6287;50.984;7.022;2022-11-25T08:26:03;6.20;;;2.60;;
12445;SDS011;6287;50.984;7.022;2022-11-25T08:28:29;4.87;;;2.80;;
12445;SDS011;6287;50.984;7.022;2022-11-25T08:31:04;6.87;;;2.87;;
12445;SDS011;6287;50.984;7.022;2022-11-25T08:33:39;4.60;;;2.70;;
12445;SDS011;6287;50.984;7.022;2022-11-25T08:36:10;4.77;;;2.40;;
12445;SDS011;6287;50.984;7.022;2022-11-25T08:38:36;6.07;;;2.20;;
12445;SDS011;6287;50.984;7.022;2022-11-25T08:41:07;6.50;;;2.27;;
12445;SDS011;6287;50.984;7.022;2022-11-25T08:43:37;8.43;;;2.87;;
12445;SDS011;6287;50.984;7.022;2022-11-25T08:46:06;4.27;;;2.43;;
12445;SDS011;6287;50.984;7.022;2022-11-25T08:48:35;5.97;;;2.80;;
12445;SDS011;6287;50.984;7.022;2022-11-25T08:51:01;11.07;;;2.80;;
12445;SDS011;6287;50.984;7.022;2022-11-25T08:53:31;5.27;;;2.47;;
12445;SDS011;6287;50.984;7.022;2022-11-25T08:55:57;4.87;;;2.33;;
12445;SDS011;6287;50.984;7.022;2022-11-25T08:58:22;7.60;;;2.40;;
12445;SDS011;6287;50.984;7.022;2022-11-25T09:00:50;4.20;;;2.50;;
12445;SDS011;6287;50.984;7.022;2022-11-25T09:03:16;6.83;;;2.70;;
12445;SDS011;6287;50.984;7.022;2022-11-25T09:05:41;4.07;;;2.30;;
12445;SDS011;6287;50.984;7.022;2022-11-25T09:08:08;6.37;;;2.30;;
12445;SDS011;6287;50.984;7.022;2022-11-25T09:10:35;4.97;;;2.37;;
12445;SDS011;6287;50.984;7.022;2022-11-25T09:13:04;3.37;;;2.27;;
12445;SDS011;6287;50.984;7.022;2022-11-25T09:15:36;6.93;;;2.30;;
12445;SDS011;6287;50.984;7.022;2022-11-25T09:18:06;3.60;;;1.73;;
12445;SDS011;6287;50.984;7.022;2022-11-25T09:20:35;4.70;;;1.60;;
12445;SDS011;6287;50.984;7.022;2022-11-25T09:23:07;4.13;;;2.27;;
12445;SDS011;6287;50.984;7.022;2022-11-25T09:25:33;3.27;;;2.20;;
12445;SDS011;6287;50.984;7.022;2022-11-25T09:28:02;3.83;;;2.27;;
12445;SDS011;6287;50.984;7.022;2022-11-25T09:30:31;2.97;;;2.23;;
12445;SDS011;6287;50.984;7.022;2022-11-25T09:32:59;6.50;;;2.37;;
12445;SDS011;6287;50.984;7.022;2022-11-25T09:35:25;3.10;;;2.30;;
12445;SDS011;6287;50.984;7.022;2022-11-25T09:37:51;5.07;;;2.87;;
12445;SDS011;6287;50.984;7.022;2022-11-25T09:40:20;3.57;;;2.40;;
12445;SDS011;6287;50.984;7.022;2022-11-25T09:46:10;4.17;;;2.43;;
12445;SDS011;6287;50.984;7.022;2022-11-25T09:51:32;2.93;;;2.17;;
12445;SDS011;6287;50.984;7.022;2022-11-25T09:54:34;3.43;;;2.20;;
12445;SDS011;6287;50.984;7.022;2022-11-25T09:59:46;3.90;;;2.30;;
12445;SDS011;6287;50.984;7.022;2022-11-25T10:02:35;3.53;;;2.13;;
12445;SDS011;6287;50.984;7.022;2022-11-25T10:05:20;6.90;;;2.73;;
12445;SDS011;6287;50.984;7.022;2022-11-25T10:07:58;4.83;;;2.40;;
12445;SDS011;6287;50.984;7.022;2022-11-25T10:10:36;2.43;;;2.00;;
12445;SDS011;6287;50.984;7.022;2022-11-25T10:13:12;4.47;;;2.27;;
12445;SDS011;6287;50.984;7.022;2022-11-25T10:15:47;3.53;;;1.90;;
12445;SDS011;6287;50.984;7.022;2022-11-25T10:21:15;4.73;;;1.90;;
12445;SDS011;6287;50.984;7.022;2022-11-25T10:23:40;2.63;;;1.23;;
12445;SDS011;6287;50.984;7.022;2022-11-25T10:26:13;4.03;;;1.70;;
12445;SDS011;6287;50.984;7.022;2022-11-25T10:28:47;1.57;;;1.43;;
12445;SDS011;6287;50.984;7.022;2022-11-25T10:31:22;5.37;;;1.43;;
12445;SDS011;6287;50.984;7.022;2022-11-25T10:33:54;3.63;;;1.80;;
12445;SDS011;6287;50.984;7.022;2022-11-25T10:36:24;3.83;;;1.57;;
12445;SDS011;6287;50.984;7.022;2022-11-25T10:39:14;3.33;;;1.40;;
12445;SDS011;6287;50.984;7.022;2022-11-25T10:41:51;2.87;;;1.33;;
12445;SDS011;6287;50.984;7.022;2022-11-25T10:44:27;3.77;;;1.87;;
12445;SDS011;6287;50.984;7.022;2022-11-25T10:49:55;3.77;;;1.27;;
12445;SDS011;6287;50.984;7.022;2022-11-25T10:52:40;4.33;;;1.50;;
12445;SDS011;6287;50.984;7.022;2022-11-25T10:55:23;4.43;;;1.47;;
12445;SDS011;6287;50.984;7.022;2022-11-25T10:57:50;3.43;;;1.27;;
12445;SDS011;6287;50.984;7.022;2022-11-25T11:00:31;2.47;;;1.20;;
12445;SDS011;6287;50.984;7.022;2022-11-25T11:03:00;1.60;;;1.10;;
12445;SDS011;6287;50.984;7.022;2022-11-25T11:05:54;5.70;;;1.27;;
12445;SDS011;6287;50.984;7.022;2022-11-25T11:08:24;2.87;;;1.20;;
12445;SDS011;6287;50.984;7.022;2022-11-25T11:13:42;2.97;;;1.30;;
12445;SDS011;6287;50.984;7.022;2022-11-25T11:16:32;5.53;;;1.33;;
12445;SDS011;6287;50.984;7.022;2022-11-25T11:19:02;1.43;;;0.90;;
12445;SDS011;6287;50.984;7.022;2022-11-25T11:21:36;1.47;;;1.17;;
12445;SDS011;6287;50.984;7.022;2022-11-25T11:24:21;4.73;;;1.33;;
12445;SDS011;6287;50.984;7.022;2022-11-25T11:30:07;6.63;;;1.40;;
12445;SDS011;6287;50.984;7.022;2022-11-25T11:32:42;1.57;;;1.10;;
12445;SDS011;6287;50.984;7.022;2022-11-25T11:35:19;3.17;;;0.90;;
12445;SDS011;6287;50.984;7.022;2022-11-25T11:37:52;1.00;;;0.90;;
12445;SDS011;6287;50.984;7.022;2022-11-25T11:40:40;3.57;;;1.13;;
12445;SDS011;6287;50.984;7.022;2022-11-25T11:51:09;2.87;;;0.97;;
12445;SDS011;6287;50.984;7.022;2022-11-25T11:56:28;3.60;;;1.50;;
12445;SDS011;6287;50.984;7.022;2022-11-25T12:01:43;4.03;;;1.43;;
12445;SDS011;6287;50.984;7.022;2022-11-25T12:07:23;7.37;;;1.80;;
12445;SDS011;6287;50.984;7.022;2022-11-25T12:13:01;5.70;;;1.67;;
12445;SDS011;6287;50.984;7.022;2022-11-25T12:15:45;6.37;;;1.30;;
12445;SDS011;6287;50.984;7.022;2022-11-25T12:26:46;4.33;;;1.30;;
12445;SDS011;6287;50.984;7.022;2022-11-25T12:35:00;8.50;;;1.70;;
12445;SDS011;6287;50.984;7.022;2022-11-25T12:37:55;3.80;;;1.30;;
12445;SDS011;6287;50.984;7.022;2022-11-25T12:40:32;4.80;;;1.30;;
12445;SDS011;6287;50.984;7.022;2022-11-25T12:46:03;7.83;;;1.27;;
12445;SDS011;6287;50.984;7.022;2022-11-25T12:48:33;5.20;;;1.50;;
12445;SDS011;6287;50.984;7.022;2022-11-25T12:51:14;8.73;;;1.93;;
12445;SDS011;6287;50.984;7.022;2022-11-25T12:53:51;5.03;;;1.30;;
12445;SDS011;6287;50.984;7.022;2022-11-25T12:56:42;6.03;;;1.50;;
12445;SDS011;6287;50.984;7.022;2022-11-25T13:11:45;4.60;;;1.40;;
12445;SDS011;6287;50.984;7.022;2022-11-25T13:16:54;5.53;;;1.37;;
12445;SDS011;6287;50.984;7.022;2022-11-25T13:19:21;2.67;;;1.60;;
12445;SDS011;6287;50.984;7.022;2022-11-25T13:21:57;6.50;;;1.57;;
12445;SDS011;6287;50.984;7.022;2022-11-25T13:24:38;4.60;;;1.13;;
12445;SDS011;6287;50.984;7.022;2022-11-25T13:40:55;4.70;;;1.27;;
12445;SDS011;6287;50.984;7.022;2022-11-25T13:43:26;3.63;;;1.43;;
12445;SDS011;6287;50.984;7.022;2022-11-25T13:45:52;3.20;;;1.47;;
12445;SDS011;6287;50.984;7.022;2022-11-25T13:48:28;6.50;;;1.73;;
12445;SDS011;6287;50.984;7.022;2022-11-25T13:53:48;5.50;;;1.50;;
12445;SDS011;6287;50.984;7.022;2022-11-25T14:01:38;4.17;;;1.27;;
12445;SDS011;6287;50.984;7.022;2022-11-25T14:04:06;2.57;;;1.10;;
12445;SDS011;6287;50.984;7.022;2022-11-25T14:10:00;3.23;;;1.40;;
12445;SDS011;6287;50.984;7.022;2022-11-25T14:15:54;5.17;;;1.30;;
12445;SDS011;6287;50.984;7.022;2022-11-25T14:26:45;4.33;;;1.10;;
12445;SDS011;6287;50.984;7.022;2022-11-25T14:29:20;3.00;;;0.90;;
12445;SDS011;6287;50.984;7.022;2022-11-25T14:34:58;5.07;;;1.83;;
12445;SDS011;6287;50.984;7.022;2022-11-25T14:37:49;5.60;;;1.50;;
12445;SDS011;6287;50.984;7.022;2022-11-25T14:40:29;3.73;;;1.20;;
12445;SDS011;6287;50.984;7.022;2022-11-25T14:43:03;3.53;;;1.13;;
12445;SDS011;6287;50.984;7.022;2022-11-25T14:45:32;2.93;;;1.10;;
12445;SDS011;6287;50.984;7.022;2022-11-25T14:48:19;4.40;;;1.30;;
12445;SDS011;6287;50.984;7.022;2022-11-25T14:50:57;3.00;;;1.27;;
12445;SDS011;6287;50.984;7.022;2022-11-25T14:53:37;3.20;;;1.10;;
12445;SDS011;6287;50.984;7.022;2022-11-25T14:56:08;2.20;;;1.27;;
12445;SDS011;6287;50.984;7.022;2022-11-25T14:58:38;3.80;;;1.10;;
12445;SDS011;6287;50.984;7.022;2022-11-25T15:01:06;4.23;;;1.77;;
12445;SDS011;6287;50.984;7.022;2022-11-25T15:03:41;4.20;;;1.37;;
12445;SDS011;6287;50.984;7.022;2022-11-25T15:06:10;1.93;;;1.30;;
12445;SDS011;6287;50.984;7.022;2022-11-25T15:08:41;4.53;;;1.70;;
12445;SDS011;6287;50.984;7.022;2022-11-25T15:11:12;1.60;;;1.20;;
12445;SDS011;6287;50.984;7.022;2022-11-25T15:13:42;5.73;;;1.77;;
12445;SDS011;6287;50.984;7.022;2022-11-25T15:16:16;4.77;;;1.40;;
12445;SDS011;6287;50.984;7.022;2022-11-25T15:18:51;7.07;;;1.40;;
12445;SDS011;6287;50.984;7.022;2022-11-25T15:21:41;4.67;;;1.77;;
12445;SDS011;6287;50.984;7.022;2022-11-25T15:26:57;4.83;;;1.57;;
12445;SDS011;6287;50.984;7.022;2022-11-25T15:29:28;4.20;;;1.33;;
12445;SDS011;6287;50.984;7.022;2022-11-25T15:32:04;4.80;;;1.87;;
12445;SDS011;6287;50.984;7.022;2022-11-25T15:34:34;5.50;;;1.93;;
12445;SDS011;6287;50.984;7.022;2022-11-25T15:37:00;1.73;;;1.03;;
12445;SDS011;6287;50.984;7.022;2022-11-25T15:39:27;5.13;;;1.50;;
12445;SDS011;6287;50.984;7.022;2022-11-25T15:44:27;4.07;;;1.30;;
12445;SDS011;6287;50.984;7.022;2022-11-25T15:49:46;3.57;;;1.90;;
12445;SDS011;6287;50.984;7.022;2022-11-25T15:52:16;5.63;;;1.57;;
12445;SDS011;6287;50.984;7.022;2022-11-25T15:54:45;5.40;;;1.40;;
12445;SDS011;6287;50.984;7.022;2022-11-25T15:57:14;1.70;;;1.37;;
12445;SDS011;6287;50.984;7.022;2022-11-25T16:02:56;6.60;;;2.03;;
12445;SDS011;6287;50.984;7.022;2022-11-25T16:10:34;3.03;;;1.30;;
12445;SDS011;6287;50.984;7.022;2022-11-25T16:21:22;5.47;;;1.60;;
12445;SDS011;6287;50.984;7.022;2022-11-25T16:23:53;4.10;;;1.53;;
12445;SDS011;6287;50.984;7.022;2022-11-25T16:26:27;4.43;;;1.73;;
12445;SDS011;6287;50.984;7.022;2022-11-25T16:28:58;3.83;;;2.17;;
12445;SDS011;6287;50.984;7.022;2022-11-25T16:31:32;9.43;;;5.20;;
12445;SDS011;6287;50.984;7.022;2022-11-25T16:34:00;8.50;;;4.40;;
12445;SDS011;6287;50.984;7.022;2022-11-25T16:36:41;10.67;;;4.13;;
12445;SDS011;6287;50.984;7.022;2022-11-25T16:39:09;9.73;;;3.40;;
12445;SDS011;6287;50.984;7.022;2022-11-25T16:41:35;4.77;;;2.23;;
12445;SDS011;6287;50.984;7.022;2022-11-25T16:44:02;5.03;;;2.07;;
12445;SDS011;6287;50.984;7.022;2022-11-25T16:46:35;5.97;;;1.60;;
12445;SDS011;6287;50.984;7.022;2022-11-25T16:49:07;4.70;;;1.90;;
12445;SDS011;6287;50.984;7.022;2022-11-25T16:51:37;3.57;;;2.43;;
12445;SDS011;6287;50.984;7.022;2022-11-25T16:54:06;7.50;;;3.67;;
12445;SDS011;6287;50.984;7.022;2022-11-25T16:56:33;3.33;;;2.33;;
12445;SDS011;6287;50.984;7.022;2022-11-25T16:59:01;5.83;;;2.53;;
12445;SDS011;6287;50.984;7.022;2022-11-25T17:01:31;8.53;;;2.60;;
12445;SDS011;6287;50.984;7.022;2022-11-25T17:04:02;3.67;;;1.90;;
12445;SDS011;6287;50.984;7.022;2022-11-25T17:06:28;2.40;;;1.67;;
12445;SDS011;6287;50.984;7.022;2022-11-25T17:08:54;3.23;;;1.80;;
12445;SDS011;6287;50.984;7.022;2022-11-25T17:11:25;3.60;;;1.30;;
12445;SDS011;6287;50.984;7.022;2022-11-25T17:13:57;6.23;;;1.73;;
12445;SDS011;6287;50.984;7.022;2022-11-25T17:16:30;3.50;;;1.30;;
12445;SDS011;6287;50.984;7.022;2022-11-25T17:18:56;2.17;;;1.40;;
12445;SDS011;6287;50.984;7.022;2022-11-25T17:21:23;3.63;;;1.37;;
12445;SDS011;6287;50.984;7.022;2022-11-25T17:23:52;3.27;;;1.57;;
12445;SDS011;6287;50.984;7.022;2022-11-25T17:26:21;4.83;;;1.53;;
12445;SDS011;6287;50.984;7.022;2022-11-25T17:28:53;5.30;;;1.57;;
12445;SDS011;6287;50.984;7.022;2022-11-25T17:31:25;4.47;;;1.40;;
12445;SDS011;6287;50.984;7.022;2022-11-25T17:33:54;4.30;;;1.37;;
12445;SDS011;6287;50.984;7.022;2022-11-25T17:36:20;6.43;;;1.80;;
12445;SDS011;6287;50.984;7.022;2022-11-25T17:38:46;3.07;;;1.30;;
12445;SDS011;6287;50.984;7.022;2022-11-25T17:41:15;2.60;;;1.53;;
12445;SDS011;6287;50.984;7.022;2022-11-25T17:43:48;7.27;;;1.77;;
12445;SDS011;6287;50.984;7.022;2022-11-25T17:46:17;3.60;;;1.50;;
12445;SDS011;6287;50.984;7.022;2022-11-25T17:48:48;2.30;;;1.30;;
12445;SDS011;6287;50.984;7.022;2022-11-25T17:51:16;4.40;;;1.57;;